Time;durP1;ratioP1;P1;durP2;ratioP2;P2;SDS_P1;SDS_P2;PMS_P1;PMS_P2;Temp;Humidity;BMP_temperature;BMP_pressure;BME280_temperature;BME280_humidity;BME280_pressure;Samples;Min_cycle;Max_cycle;Signal;HPM_P1;HPM_P2
2023/11/25 00:00:27;;;;;;;1.30;1.03;;;3.80;99.90;;;4.23;100.00;97517.34;5017641;28;20936;-76
2023/11/25 00:02:56;;;;;;;1.27;0.90;;;3.80;99.90;;;4.24;100.00;97503.41;5016283;28;20948;-76
2023/11/25 00:05:26;;;;;;;2.23;1.00;;;3.80;99.90;;;4.31;100.00;97524.25;5014862;28;20552;-75
2023/11/25 00:07:55;;;;;;;3.80;1.33;;;3.80;99.90;;;4.36;100.00;97522.03;5015966;28;20545;-76
2023/11/25 00:10:23;;;;;;;4.37;1.37;;;3.70;99.90;;;4.36;100.00;97520.25;5015857;28;20523;-75
2023/11/25 00:12:53;;;;;;;3.47;1.20;;;3.80;99.90;;;4.31;100.00;97530.25;5016055;28;20517;-76
2023/11/25 00:15:23;;;;;;;7.40;1.13;;;3.80;99.90;;;4.28;100.00;97530.59;5015650;28;20477;-76
2023/11/25 00:17:52;;;;;;;3.53;1.47;;;3.90;99.90;;;4.24;100.00;97531.88;5017190;28;21234;-76
2023/11/25 00:20:21;;;;;;;5.13;1.27;;;3.90;99.90;;;4.18;100.00;97527.34;5017499;28;20476;-76
2023/11/25 00:22:52;;;;;;;4.57;1.27;;;3.80;99.90;;;4.21;100.00;97529.59;5016607;28;20974;-76
2023/11/25 00:25:23;;;;;;;5.17;1.87;;;3.80;99.90;;;4.16;100.00;97539.63;5015923;28;20531;-76
2023/11/25 00:27:52;;;;;;;7.10;1.83;;;3.80;99.90;;;4.20;100.00;97532.38;5016115;28;20466;-76
2023/11/25 00:30:21;;;;;;;4.20;1.50;;;3.70;99.90;;;4.20;100.00;97540.91;5015096;28;20461;-76
2023/11/25 00:32:49;;;;;;;5.43;1.10;;;3.80;99.90;;;4.19;100.00;97544.50;5014800;28;20544;-76
2023/11/25 00:35:18;;;;;;;3.00;0.90;;;3.70;99.90;;;4.18;100.00;97537.69;5014078;28;20473;-76
2023/11/25 00:37:46;;;;;;;4.43;1.37;;;3.70;99.90;;;4.16;100.00;97539.63;5013363;28;20488;-76
2023/11/25 00:40:16;;;;;;;7.73;1.77;;;3.80;99.90;;;4.17;100.00;97541.22;5014974;28;20497;-76
2023/11/25 00:42:47;;;;;;;11.77;1.33;;;3.80;99.90;;;4.08;100.00;97531.84;5015426;28;20541;-76
2023/11/25 00:45:15;;;;;;;6.97;1.10;;;3.70;99.90;;;4.07;100.00;97530.22;5014261;28;20468;-76
2023/11/25 00:47:45;;;;;;;9.30;0.90;;;3.60;99.90;;;4.05;100.00;97527.00;5016355;28;20814;-76
2023/11/25 00:50:15;;;;;;;4.37;1.80;;;3.60;99.90;;;4.02;100.00;97537.66;5015716;28;20473;-76
2023/11/25 00:52:44;;;;;;;1.60;0.90;;;3.60;99.90;;;4.03;100.00;97526.34;5018583;28;20469;-76
2023/11/25 00:55:13;;;;;;;9.23;1.00;;;3.60;99.90;;;4.02;100.00;97541.06;5020072;28;20461;-76
2023/11/25 00:57:43;;;;;;;8.47;1.27;;;3.50;99.90;;;3.92;100.00;97529.25;5019506;28;20497;-76
2023/11/25 01:00:15;;;;;;;2.20;1.20;;;3.40;99.90;;;3.96;100.00;97541.69;5020729;28;20481;-76
2023/11/25 01:02:45;;;;;;;2.53;1.00;;;3.40;99.90;;;3.96;100.00;97551.22;5019220;28;20576;-76
2023/11/25 01:05:14;;;;;;;7.23;1.00;;;3.30;99.90;;;3.94;100.00;97545.41;5019699;28;20461;-76
2023/11/25 01:07:43;;;;;;;3.20;0.93;;;3.40;99.90;;;3.94;100.00;97566.09;5020148;28;20458;-76
2023/11/25 01:10:11;;;;;;;2.13;0.97;;;3.50;99.90;;;3.89;100.00;97573.50;5019998;28;20952;-76
2023/11/25 01:12:41;;;;;;;2.00;1.03;;;3.40;99.90;;;3.85;100.00;97578.16;5020145;28;20550;-76
2023/11/25 01:15:12;;;;;;;11.37;1.67;;;3.40;99.90;;;3.89;100.00;97581.25;5019095;28;20473;-76
2023/11/25 01:17:41;;;;;;;3.37;1.20;;;3.40;99.90;;;3.86;100.00;97579.78;5017992;28;20468;-76
2023/11/25 01:20:11;;;;;;;2.30;0.93;;;3.40;99.90;;;3.87;100.00;97590.94;5015441;28;20461;-76
2023/11/25 01:22:39;;;;;;;2.10;0.80;;;3.40;99.90;;;3.81;100.00;97597.56;5019075;28;20478;-76
2023/11/25 01:25:09;;;;;;;5.80;1.63;;;3.30;99.90;;;3.76;100.00;97598.97;5019010;28;20461;-76
2023/11/25 01:27:38;;;;;;;4.70;1.30;;;3.30;99.90;;;3.73;100.00;97610.47;5019886;28;20453;-76
2023/11/25 01:30:10;;;;;;;1.50;0.80;;;3.20;99.90;;;3.68;100.00;97602.34;5018394;28;20525;-75
2023/11/25 01:32:38;;;;;;;4.50;1.20;;;3.20;99.90;;;3.67;100.00;97621.41;5017307;28;20466;-76
2023/11/25 01:35:07;;;;;;;4.23;1.70;;;3.20;99.90;;;3.66;100.00;97608.63;5017098;28;20472;-76
2023/11/25 01:37:36;;;;;;;1.90;1.20;;;3.20;99.90;;;3.68;100.00;97620.44;5017086;28;20541;-76
2023/11/25 01:40:10;;;;;;;4.00;1.13;;;3.30;99.90;;;3.67;100.00;97615.44;5018152;28;21271;-76
2023/11/25 01:42:39;;;;;;;1.67;1.00;;;3.20;99.90;;;3.60;100.00;97619.59;5019801;28;21026;-76
2023/11/25 01:45:10;;;;;;;7.13;1.00;;;3.00;99.90;;;3.65;100.00;97615.56;5017362;28;20469;-76
2023/11/25 01:47:40;;;;;;;5.03;1.37;;;3.10;99.90;;;3.66;100.00;97613.81;5016764;28;20472;-76
2023/11/25 01:50:10;;;;;;;1.93;1.10;;;3.10;99.90;;;3.66;100.00;97618.97;5018636;28;20465;-76
2023/11/25 01:52:40;;;;;;;2.10;1.23;;;3.00;99.90;;;3.65;100.00;97622.53;5018879;28;20484;-76
2023/11/25 01:55:10;;;;;;;4.20;1.30;;;3.10;99.90;;;3.59;100.00;97626.53;5018331;28;20518;-76
2023/11/25 01:57:39;;;;;;;2.60;1.10;;;3.10;99.90;;;3.63;100.00;97621.88;5018044;28;20478;-76
2023/11/25 02:00:13;;;;;;;2.07;1.03;;;3.10;99.90;;;3.55;100.00;97633.78;5016545;28;21050;-76
2023/11/25 02:02:43;;;;;;;2.00;0.97;;;3.10;99.90;;;3.60;100.00;97617.00;5018302;28;20558;-76
2023/11/25 02:05:12;;;;;;;4.53;1.23;;;3.00;99.90;;;3.54;100.00;97627.00;5017403;28;21064;-76
2023/11/25 02:07:42;;;;;;;2.10;0.90;;;3.10;99.90;;;3.52;100.00;97628.94;5018214;28;20468;-76
2023/11/25 02:10:11;;;;;;;1.30;1.20;;;3.00;99.90;;;3.51;100.00;97627.31;5017485;28;20503;-76
2023/11/25 02:12:40;;;;;;;2.13;1.00;;;2.90;99.90;;;3.45;100.00;97630.50;5019720;28;20471;-76
2023/11/25 02:15:14;;;;;;;2.10;1.23;;;3.00;99.90;;;3.40;100.00;97627.56;5017539;28;20464;-76
2023/11/25 02:17:44;;;;;;;1.43;1.10;;;2.80;99.90;;;3.37;100.00;97625.28;5017620;28;20526;-76
2023/11/25 02:20:13;;;;;;;2.90;1.33;;;2.80;99.90;;;3.35;100.00;97627.22;5016117;28;20505;-76
2023/11/25 02:22:52;;;;;;;6.57;1.20;;;2.90;99.90;;;3.26;100.00;97629.91;5018533;28;20468;-76
2023/11/25 02:25:21;;;;;;;3.70;1.37;;;3.00;99.90;;;3.30;100.00;97639.75;5016469;28;20871;-75
2023/11/25 02:27:52;;;;;;;3.33;1.30;;;2.90;99.90;;;3.31;100.00;97631.06;5016660;28;20471;-76
2023/11/25 02:30:23;;;;;;;2.80;1.00;;;2.90;99.90;;;3.33;100.00;97623.94;5016416;28;20463;-76
2023/11/25 02:32:51;;;;;;;3.20;1.70;;;2.90;99.90;;;3.29;100.00;97620.06;5015463;28;20456;-77
2023/11/25 02:35:20;;;;;;;2.43;1.30;;;3.00;99.90;;;3.31;100.00;97623.31;5014876;28;20474;-77
2023/11/25 02:37:50;;;;;;;7.63;1.80;;;2.90;99.90;;;3.26;100.00;97622.97;5015308;28;20518;-77
2023/11/25 02:40:19;;;;;;;1.07;0.80;;;2.80;99.90;;;3.28;100.00;97615.06;5019198;28;20505;-76
2023/11/25 02:42:48;;;;;;;2.03;1.20;;;2.90;99.90;;;3.27;100.00;97619.41;5017246;28;20555;-76
2023/11/25 02:45:19;;;;;;;1.83;1.13;;;2.90;99.90;;;3.27;100.00;97618.59;5017449;28;20561;-76
2023/11/25 02:47:48;;;;;;;1.80;1.20;;;2.90;99.90;;;3.27;100.00;97616.81;5017147;28;20473;-77
2023/11/25 02:50:18;;;;;;;2.70;0.93;;;2.80;99.90;;;3.25;100.00;97621.34;5014530;28;20956;-76
2023/11/25 02:52:47;;;;;;;7.07;1.40;;;2.80;99.90;;;3.31;100.00;97619.91;5017111;28;20958;-76
2023/11/25 02:55:17;;;;;;;12.10;1.47;;;2.90;99.90;;;3.32;100.00;97616.38;5017564;28;20974;-76
2023/11/25 02:57:46;;;;;;;6.30;1.40;;;2.80;99.90;;;3.28;100.00;97620.22;5018895;28;20461;-76
2023/11/25 03:00:27;;;;;;;6.10;1.70;;;2.80;99.90;;;3.26;100.00;97622.16;5018542;28;20503;-76
2023/11/25 03:03:07;;;;;;;4.73;1.63;;;2.80;99.90;;;3.31;100.00;97615.56;5018129;28;20457;-76
2023/11/25 03:05:38;;;;;;;3.83;1.50;;;2.70;99.90;;;3.32;100.00;97621.53;5018434;28;20475;-76
2023/11/25 03:08:09;;;;;;;4.50;1.30;;;2.80;99.90;;;3.31;100.00;97630.25;5015737;28;20526;-76
2023/11/25 03:10:42;;;;;;;3.67;1.60;;;2.80;99.90;;;3.28;100.00;97630.56;5017446;28;20465;-76
2023/11/25 03:13:12;;;;;;;2.37;1.20;;;2.90;99.90;;;3.28;100.00;97631.38;5015882;28;20513;-76
2023/11/25 03:15:41;;;;;;;4.53;1.40;;;2.80;99.90;;;3.32;100.00;97630.09;5016118;28;20463;-76
2023/11/25 03:18:10;;;;;;;3.03;1.43;;;2.80;99.90;;;3.30;100.00;97626.84;5015009;28;20466;-74
2023/11/25 03:20:40;;;;;;;5.10;1.30;;;2.90;99.90;;;3.27;100.00;97624.56;5014930;28;20525;-76
2023/11/25 03:23:09;;;;;;;3.80;1.20;;;2.90;99.90;;;3.29;100.00;97627.84;5015661;28;20532;-75
2023/11/25 03:25:38;;;;;;;3.80;1.20;;;2.90;99.90;;;3.29;100.00;97638.16;5017369;28;20466;-76
2023/11/25 03:28:10;;;;;;;4.97;1.43;;;2.90;99.90;;;3.27;100.00;97632.31;5015682;28;20508;-76
2023/11/25 03:30:40;;;;;;;4.53;1.53;;;2.90;99.90;;;3.27;100.00;97637.50;5016953;28;20494;-76
2023/11/25 03:33:09;;;;;;;7.57;1.70;;;2.80;99.90;;;3.27;100.00;97634.09;5014199;28;20631;-76
2023/11/25 03:35:38;;;;;;;4.67;1.43;;;2.80;99.90;;;3.26;100.00;97628.13;5013790;28;20460;-76
2023/11/25 03:38:08;;;;;;;17.87;3.00;;;2.70;99.90;;;3.23;100.00;97633.56;5015334;28;20469;-75
2023/11/25 03:40:37;;;;;;;3.03;1.23;;;2.80;99.90;;;3.25;100.00;97636.84;5016285;28;20558;-76
2023/11/25 03:43:06;;;;;;;8.17;1.93;;;2.70;99.90;;;3.29;100.00;97653.66;5014626;28;20559;-74
2023/11/25 03:45:36;;;;;;;4.80;1.57;;;2.60;99.90;;;3.23;100.00;97654.25;5016956;28;20464;-76
2023/11/25 03:48:06;;;;;;;2.60;2.00;;;2.80;99.90;;;3.24;100.00;97655.06;5015206;28;21192;-77
2023/11/25 03:50:35;;;;;;;3.03;1.63;;;2.80;99.90;;;3.21;100.00;97653.59;5015319;28;20474;-76
2023/11/25 03:53:04;;;;;;;4.77;1.20;;;2.70;99.90;;;3.19;100.00;97658.13;5014090;28;20504;-76
2023/11/25 03:55:33;;;;;;;10.73;3.73;;;2.70;99.90;;;3.13;100.00;97658.69;5012284;28;20475;-77
2023/11/25 03:58:03;;;;;;;1.97;1.30;;;2.70;99.90;;;3.14;100.00;97673.25;5011764;28;20473;-76
2023/11/25 04:00:32;;;;;;;3.67;1.53;;;2.60;99.90;;;3.09;100.00;97664.31;5012129;28;20516;-76
2023/11/25 04:03:01;;;;;;;6.60;1.53;;;2.50;99.90;;;3.09;100.00;97662.53;5016528;28;21053;-76
2023/11/25 04:05:30;;;;;;;4.83;1.37;;;2.60;99.90;;;3.11;100.00;97658.03;5016274;28;20551;-75
2023/11/25 04:07:59;;;;;;;6.00;1.57;;;2.60;99.90;;;3.09;100.00;97661.75;5017946;28;20831;-76
2023/11/25 04:10:27;;;;;;;4.63;1.27;;;2.70;99.90;;;3.13;100.00;97656.09;5014986;28;20488;-75
2023/11/25 04:12:56;;;;;;;5.10;1.80;;;2.60;99.90;;;3.14;100.00;97649.19;5015185;28;20513;-75
2023/11/25 04:15:25;;;;;;;3.57;1.13;;;2.50;99.90;;;3.12;100.00;97666.59;5015121;28;20536;-76
2023/11/25 04:17:53;;;;;;;2.53;1.40;;;2.50;99.90;;;3.12;100.00;97657.09;5014633;28;20472;-76
2023/11/25 04:20:28;;;;;;;8.00;1.50;;;2.60;99.90;;;3.12;100.00;97651.13;5015461;28;20573;-75
2023/11/25 04:23:05;;;;;;;3.60;1.37;;;2.50;99.90;;;3.10;100.00;97664.16;5014649;28;20470;-75
2023/11/25 04:25:34;;;;;;;5.07;1.47;;;2.50;99.90;;;3.09;100.00;97672.84;5021642;28;20465;-76
2023/11/25 04:28:06;;;;;;;9.10;1.70;;;2.40;99.90;;;3.00;100.00;97673.78;5019041;28;20455;-75
2023/11/25 04:30:35;;;;;;;14.80;1.77;;;2.40;99.90;;;2.99;100.00;97677.31;5021221;28;20469;-76
2023/11/25 04:33:04;;;;;;;4.20;1.43;;;2.40;99.90;;;3.02;100.00;97677.00;5018564;28;20466;-76
2023/11/25 04:35:34;;;;;;;4.73;1.70;;;2.40;99.90;;;2.97;100.00;97674.06;5019933;28;20507;-76
2023/11/25 04:38:03;;;;;;;5.03;2.20;;;2.40;99.90;;;2.93;100.00;97680.47;5020008;28;20470;-76
2023/11/25 04:40:32;;;;;;;5.57;1.50;;;2.40;99.90;;;2.92;100.00;97681.44;5019459;28;20496;-76
2023/11/25 04:43:00;;;;;;;6.83;1.47;;;2.30;99.90;;;2.90;100.00;97680.78;5014876;28;20494;-76
2023/11/25 04:45:29;;;;;;;2.07;1.50;;;2.40;99.90;;;2.94;100.00;97679.53;5014424;28;20478;-76
2023/11/25 04:47:57;;;;;;;9.20;2.27;;;2.40;99.90;;;2.95;100.00;97681.16;5015652;28;20501;-75
2023/11/25 04:50:27;;;;;;;6.33;1.10;;;2.40;99.90;;;2.93;100.00;97683.06;5015383;28;20473;-77
2023/11/25 04:52:57;;;;;;;8.10;2.37;;;2.50;99.90;;;2.99;100.00;97680.69;5015557;28;20833;-76
2023/11/25 04:55:27;;;;;;;4.30;1.43;;;2.40;99.90;;;3.00;100.00;97689.25;5016514;28;20457;-75
2023/11/25 04:57:57;;;;;;;1.30;1.10;;;2.40;99.90;;;2.98;100.00;97673.13;5018824;28;20470;-75
2023/11/25 05:00:25;;;;;;;5.70;1.73;;;2.50;99.90;;;3.00;100.00;97677.16;5020307;28;21231;-76
2023/11/25 05:02:54;;;;;;;9.03;1.80;;;2.40;99.90;;;3.07;100.00;97672.22;5017656;28;20769;-75
2023/11/25 05:05:23;;;;;;;10.17;2.00;;;2.40;99.90;;;3.07;100.00;97679.16;5017709;28;20467;-75
2023/11/25 05:07:52;;;;;;;2.90;1.37;;;2.60;99.90;;;3.10;100.00;97678.84;5015599;28;20471;-76
2023/11/25 05:10:22;;;;;;;5.77;1.50;;;2.50;99.90;;;3.12;100.00;97677.75;5017787;28;20462;-75
2023/11/25 05:12:51;;;;;;;19.97;1.90;;;2.60;99.90;;;3.13;100.00;97679.34;5018593;28;20455;-75
2023/11/25 05:15:22;;;;;;;3.30;1.53;;;2.50;99.90;;;3.13;100.00;97671.59;5013951;28;20477;-76
2023/11/25 05:17:51;;;;;;;4.63;2.10;;;2.50;99.90;;;3.12;100.00;97672.59;5018260;28;20518;-76
2023/11/25 05:20:19;;;;;;;12.30;1.90;;;2.70;99.90;;;3.10;100.00;97684.81;5017184;28;20495;-75
2023/11/25 05:22:48;;;;;;;10.73;2.43;;;2.80;99.90;;;3.08;100.00;97686.75;5016887;28;20473;-76
2023/11/25 05:25:17;;;;;;;7.40;2.03;;;2.60;99.90;;;3.09;100.00;97682.41;5016085;28;20549;-75
2023/11/25 05:27:47;;;;;;;7.53;2.50;;;2.60;99.90;;;3.04;100.00;97685.44;5016950;28;20476;-76
2023/11/25 05:30:16;;;;;;;9.33;2.33;;;2.70;99.90;;;3.04;100.00;97680.25;5015382;28;20512;-76
2023/11/25 05:32:45;;;;;;;6.05;1.88;;;2.60;99.90;;;3.09;100.00;97685.00;5016451;28;20807;-77
2023/11/25 05:35:14;;;;;;;5.37;2.07;;;2.50;99.90;;;3.10;100.00;97690.00;5019281;28;20213;-78
2023/11/25 05:37:43;;;;;;;11.50;1.97;;;2.60;99.90;;;3.12;100.00;97693.25;5019869;28;20564;-77
2023/11/25 05:40:14;;;;;;;14.33;1.57;;;2.60;99.90;;;3.11;100.00;97694.19;5019899;28;20493;-77
2023/11/25 05:42:52;;;;;;;5.80;1.63;;;2.60;99.90;;;3.13;100.00;97696.63;5017640;28;20505;-77
2023/11/25 05:45:26;;;;;;;4.60;1.67;;;2.60;99.90;;;3.09;100.00;97697.91;5020056;28;20466;-77
2023/11/25 05:47:54;;;;;;;3.83;1.60;;;2.50;99.90;;;3.14;100.00;97701.66;5021360;28;21000;-77
2023/11/25 05:50:23;;;;;;;14.83;2.37;;;2.60;99.90;;;3.11;100.00;97689.03;5021402;28;20815;-77
2023/11/25 05:52:52;;;;;;;4.27;1.47;;;2.50;99.90;;;3.03;100.00;97694.13;5019471;28;20521;-77
2023/11/25 05:55:21;;;;;;;3.70;1.60;;;2.60;99.90;;;2.99;100.00;97693.63;5020216;28;20491;-77
2023/11/25 05:57:52;;;;;;;11.03;1.40;;;2.60;99.90;;;3.03;100.00;97691.53;5019772;28;20458;-78
2023/11/25 06:00:22;;;;;;;8.47;1.80;;;2.50;99.90;;;3.06;100.00;97696.41;5019892;28;20501;-77
2023/11/25 06:02:52;;;;;;;9.10;1.67;;;2.40;99.90;;;3.03;100.00;97694.94;5020562;28;20462;-78
2023/11/25 06:05:22;;;;;;;6.63;2.07;;;2.40;99.90;;;3.02;100.00;97698.47;5021259;28;20458;-78
2023/11/25 06:07:50;;;;;;;7.40;2.30;;;2.40;99.90;;;2.97;100.00;97699.88;5020209;28;20458;-78
2023/11/25 06:10:20;;;;;;;2.80;1.27;;;2.20;99.90;;;2.96;100.00;97704.25;5020467;28;20467;-77
2023/11/25 06:12:50;;;;;;;8.67;1.70;;;2.30;99.90;;;2.91;100.00;97708.22;5019625;28;20541;-77
2023/11/25 06:15:19;;;;;;;7.00;1.40;;;2.30;99.90;;;2.90;100.00;97706.59;5020119;28;20463;-77
2023/11/25 06:17:50;;;;;;;4.97;1.57;;;2.30;99.90;;;2.86;100.00;97700.09;5020038;28;20954;-77
2023/11/25 06:20:19;;;;;;;3.90;1.40;;;2.20;99.90;;;2.86;100.00;97694.94;5021101;28;20460;-77
2023/11/25 06:22:47;;;;;;;4.33;1.70;;;2.30;99.90;;;2.87;100.00;97692.22;5018368;28;20459;-77
2023/11/25 06:25:16;;;;;;;8.03;1.93;;;2.30;99.90;;;2.93;100.00;97690.81;5017128;28;20468;-76
2023/11/25 06:27:45;;;;;;;7.20;1.63;;;2.30;99.90;;;2.92;100.00;97691.75;5018150;28;20475;-78
2023/11/25 06:30:17;;;;;;;4.77;1.90;;;2.40;99.90;;;2.91;100.00;97690.97;5018706;28;20472;-77
2023/11/25 06:32:46;;;;;;;6.00;2.00;;;2.30;99.90;;;2.91;100.00;97683.22;5018216;28;20495;-77
2023/11/25 06:35:15;;;;;;;15.97;2.23;;;2.30;99.90;;;2.93;100.00;97694.22;5018162;28;20495;-78
2023/11/25 06:37:43;;;;;;;5.60;1.80;;;2.20;99.90;;;2.81;100.00;97700.53;5018042;28;20474;-77
2023/11/25 06:40:14;;;;;;;3.37;1.43;;;2.20;99.90;;;2.84;100.00;97700.28;5019198;28;20494;-77
2023/11/25 06:42:43;;;;;;;7.20;1.90;;;2.30;99.90;;;2.89;100.00;97699.81;5017204;28;20502;-77
2023/11/25 06:45:13;;;;;;;9.73;1.47;;;2.20;99.90;;;2.76;100.00;97697.59;5016743;28;20468;-77
2023/11/25 06:47:44;;;;;;;7.43;1.70;;;2.10;99.90;;;2.78;100.00;97695.66;5016818;28;20462;-77
2023/11/25 06:50:12;;;;;;;5.80;1.50;;;2.00;99.90;;;2.73;100.00;97692.75;5017489;28;20976;-77
2023/11/25 06:52:41;;;;;;;4.20;1.80;;;2.00;99.90;;;2.68;100.00;97688.94;5018495;28;20549;-77
2023/11/25 06:55:10;;;;;;;3.00;1.40;;;2.00;99.90;;;2.58;100.00;97688.22;5018572;28;20463;-77
2023/11/25 06:57:40;;;;;;;10.63;1.77;;;1.80;99.90;;;2.59;100.00;97684.69;5019832;28;20557;-77
2023/11/25 07:00:13;;;;;;;6.67;1.73;;;1.80;99.90;;;2.51;100.00;97682.81;5019461;28;21044;-77
2023/11/25 07:02:43;;;;;;;12.97;1.90;;;1.70;99.90;;;2.46;100.00;97700.53;5019058;28;20583;-77
2023/11/25 07:05:13;;;;;;;6.50;2.37;;;1.60;99.90;;;2.36;100.00;97700.56;5018706;28;20467;-77
2023/11/25 07:07:42;;;;;;;6.57;2.00;;;1.50;99.90;;;2.39;100.00;97705.44;5019163;28;20975;-77
2023/11/25 07:10:13;;;;;;;5.90;1.40;;;1.60;99.90;;;2.36;100.00;97700.56;5019269;28;20594;-77
2023/11/25 07:12:43;;;;;;;6.13;1.67;;;1.70;99.90;;;2.38;100.00;97708.16;5016957;28;20550;-77
2023/11/25 07:15:13;;;;;;;7.43;2.07;;;1.70;99.90;;;2.33;100.00;97713.75;5018093;28;20465;-77
2023/11/25 07:17:43;;;;;;;6.87;1.70;;;1.80;99.90;;;2.35;100.00;97705.88;5019604;28;20466;-77
2023/11/25 07:20:13;;;;;;;10.10;1.80;;;1.80;99.90;;;2.38;100.00;97708.16;5018298;28;20471;-77
2023/11/25 07:22:43;;;;;;;17.53;2.90;;;1.80;99.90;;;2.40;100.00;97713.97;5020081;28;20545;-77
2023/11/25 07:25:16;;;;;;;5.60;1.83;;;1.80;99.90;;;2.49;100.00;97721.69;5017463;28;20501;-77
2023/11/25 07:27:46;;;;;;;3.73;1.67;;;1.90;99.90;;;2.57;100.00;97702.09;5019772;28;20823;-77
2023/11/25 07:30:16;;;;;;;7.77;2.67;;;2.00;99.90;;;2.60;100.00;97701.78;5018736;28;20503;-77
2023/11/25 07:32:47;;;;;;;7.30;2.13;;;2.10;99.90;;;2.63;100.00;97704.09;5018709;28;20481;-77
2023/11/25 07:35:16;;;;;;;10.57;2.10;;;2.00;99.90;;;2.70;100.00;97715.44;5018682;28;20455;-77
2023/11/25 07:37:45;;;;;;;19.57;4.30;;;2.10;99.90;;;2.75;100.00;97715.81;5015002;28;20468;-77
2023/11/25 07:40:15;;;;;;;5.40;1.90;;;2.10;99.90;;;2.80;100.00;97714.44;5017946;28;20462;-77
2023/11/25 07:42:48;;;;;;;6.67;2.70;;;2.20;99.90;;;2.85;100.00;97716.53;5019094;28;20495;-77
2023/11/25 07:45:17;;;;;;;10.07;2.90;;;2.20;99.90;;;2.88;100.00;97718.88;5019657;28;20459;-77
2023/11/25 07:47:48;;;;;;;9.03;2.90;;;2.20;99.90;;;2.93;100.00;97719.22;5017998;28;20477;-77
2023/11/25 07:50:17;;;;;;;9.80;2.50;;;2.30;99.90;;;2.96;100.00;97714.56;5018288;28;20504;-77
2023/11/25 07:52:46;;;;;;;7.90;2.20;;;2.30;99.90;;;2.99;100.00;97716.03;5017616;28;20496;-78
2023/11/25 07:55:15;;;;;;;10.53;1.83;;;2.30;99.90;;;3.01;100.00;97721.88;5019635;28;20528;-77
2023/11/25 07:57:44;;;;;;;11.00;2.70;;;2.30;99.90;;;2.98;100.00;97725.56;5019667;28;20972;-78
2023/11/25 08:00:15;;;;;;;8.60;2.10;;;2.20;99.90;;;3.01;100.00;97737.38;5018490;28;20477;-77
2023/11/25 08:02:48;;;;;;;6.13;1.83;;;2.30;99.90;;;3.02;100.00;97733.81;5018641;28;20549;-77
2023/11/25 08:05:22;;;;;;;8.33;1.57;;;2.30;99.90;;;3.02;100.00;97719.13;5017770;28;20857;-77
2023/11/25 08:07:53;;;;;;;13.30;1.70;;;2.30;99.90;;;3.08;100.00;97728.09;5018856;28;20477;-77
2023/11/25 08:10:25;;;;;;;6.27;2.03;;;2.30;99.90;;;3.10;100.00;97726.16;5016561;28;20538;-77
2023/11/25 08:12:54;;;;;;;8.43;1.70;;;2.40;99.90;;;3.13;100.00;97715.50;5019238;28;20460;-77
2023/11/25 08:15:27;;;;;;;4.97;1.80;;;2.50;99.90;;;3.18;100.00;97715.06;5015639;28;20476;-77
2023/11/25 08:17:58;;;;;;;1.93;1.50;;;2.50;99.90;;;3.22;100.00;97712.06;5015808;28;20860;-77
2023/11/25 08:20:27;;;;;;;9.43;2.10;;;2.60;99.90;;;3.27;100.00;97725.31;5015666;28;20470;-77
2023/11/25 08:22:56;;;;;;;4.17;1.60;;;2.60;99.90;;;3.29;100.00;97715.66;5015872;28;20512;-77
2023/11/25 08:25:25;;;;;;;15.53;2.07;;;2.60;99.90;;;3.33;100.00;97722.13;5015243;28;20472;-76
2023/11/25 08:27:54;;;;;;;12.20;2.17;;;2.70;99.90;;;3.37;100.00;97717.47;5014728;28;21235;-77
2023/11/25 08:30:23;;;;;;;20.03;1.70;;;2.70;99.90;;;3.43;100.00;97716.91;5016584;28;20464;-77
2023/11/25 08:32:51;;;;;;;5.47;2.10;;;2.80;99.90;;;3.44;100.00;97721.91;5016432;28;20464;-78
2023/11/25 08:35:21;;;;;;;8.10;1.87;;;2.80;99.90;;;3.48;100.00;97715.47;5015683;28;20469;-77
2023/11/25 08:37:50;;;;;;;8.03;2.03;;;2.90;99.90;;;3.54;100.00;97719.22;5017446;28;20552;-77
2023/11/25 08:40:21;;;;;;;11.20;2.33;;;2.90;99.90;;;3.54;100.00;97719.22;5018649;28;20461;-77
2023/11/25 08:42:50;;;;;;;9.37;2.73;;;2.90;99.90;;;3.54;100.00;97719.22;5016792;28;20525;-77
2023/11/25 08:45:20;;;;;;;3.70;1.50;;;2.90;99.90;;;3.59;100.00;97713.59;5016533;28;20462;-77
2023/11/25 08:47:49;;;;;;;7.00;2.57;;;2.90;99.90;;;3.61;100.00;97714.28;5016297;28;20565;-77
2023/11/25 08:50:18;;;;;;;6.77;2.23;;;3.10;99.90;;;3.66;100.00;97712.03;5018150;28;20469;-77
2023/11/25 08:52:50;;;;;;;10.43;2.03;;;3.10;99.90;;;3.67;100.00;97705.91;5018308;28;20497;-77
2023/11/25 08:55:19;;;;;;;6.30;1.73;;;3.20;99.90;;;3.67;100.00;97708.50;5017940;28;20466;-78
2023/11/25 08:57:52;;;;;;;13.33;1.93;;;3.20;99.90;;;3.73;100.00;97720.81;5016490;28;21111;-77
2023/11/25 09:00:21;;;;;;;7.60;2.20;;;3.20;99.90;;;3.74;100.00;97719.84;5017137;28;21084;-77
2023/11/25 09:02:51;;;;;;;4.80;1.47;;;3.30;99.90;;;3.76;100.00;97723.09;5016177;28;20503;-77
2023/11/25 09:05:22;;;;;;;4.07;1.57;;;3.30;99.90;;;3.81;100.00;97731.22;5018111;28;20548;-77
2023/11/25 09:07:54;;;;;;;6.87;1.80;;;3.30;99.90;;;3.79;100.00;97730.53;5017914;28;20846;-78
2023/11/25 09:10:26;;;;;;;9.17;2.20;;;3.10;99.90;;;3.83;100.00;97729.28;5019438;28;20458;-77
2023/11/25 09:12:55;;;;;;;5.93;1.93;;;3.20;99.90;;;3.88;100.00;97733.03;5020012;28;20499;-77
2023/11/25 09:15:24;;;;;;;7.53;2.10;;;3.30;99.90;;;3.89;100.00;97734.63;5017586;28;20467;-77
2023/11/25 09:17:52;;;;;;;15.63;2.50;;;3.30;99.90;;;3.91;100.00;97737.91;5017635;28;20879;-78
2023/11/25 09:20:22;;;;;;;10.57;2.50;;;3.30;99.90;;;3.95;100.00;97743.59;5017975;28;20566;-77
2023/11/25 09:22:53;;;;;;;17.40;2.73;;;3.30;99.90;;;3.97;100.00;97757.16;5020485;28;20484;-77
2023/11/25 09:25:21;;;;;;;9.80;2.37;;;3.40;99.90;;;3.95;100.00;97741.00;5019172;28;21233;-77
2023/11/25 09:27:51;;;;;;;7.33;2.60;;;3.50;99.90;;;3.98;100.00;97751.03;5018405;28;20867;-77
2023/11/25 09:30:20;;;;;;;7.53;2.33;;;3.50;99.90;;;4.05;100.00;97749.47;5021193;28;20472;-77
2023/11/25 09:32:49;;;;;;;6.77;1.90;;;3.50;99.90;;;4.07;100.00;97742.34;5020906;28;20553;-77
2023/11/25 09:35:18;;;;;;;9.90;1.97;;;3.50;99.90;;;4.04;100.00;97742.66;5020742;28;20544;-77
2023/11/25 09:37:48;;;;;;;3.40;1.70;;;3.50;99.90;;;4.04;100.00;97750.41;5020295;28;20493;-77
2023/11/25 09:40:20;;;;;;;13.53;2.60;;;3.50;99.90;;;4.09;100.00;97740.44;5019739;28;20465;-77
2023/11/25 09:42:49;;;;;;;8.90;2.50;;;3.60;99.90;;;4.18;100.00;97743.84;5020710;28;20498;-78
2023/11/25 09:45:21;;;;;;;13.83;1.90;;;3.60;99.90;;;4.17;100.00;97734.47;5021658;28;20988;-77
2023/11/25 09:47:50;;;;;;;26.37;3.93;;;3.80;99.90;;;4.15;100.00;97724.28;5020378;28;20453;-77
2023/11/25 09:50:19;;;;;;;8.73;2.13;;;3.70;99.90;;;4.12;100.00;97719.41;5018548;28;20533;-77
2023/11/25 09:52:51;;;;;;;7.70;2.10;;;3.70;99.90;;;4.13;100.00;97708.09;5019958;28;20466;-77
2023/11/25 09:55:23;;;;;;;6.07;1.53;;;3.70;99.90;;;4.09;100.00;97704.22;5018838;28;20475;-78
2023/11/25 09:58:00;;;;;;;9.30;2.13;;;3.80;99.90;;;4.10;100.00;97703.22;5021225;28;20484;-77
2023/11/25 10:00:30;;;;;;;4.97;2.07;;;3.60;99.90;;;4.17;100.00;97688.72;5020496;28;21182;-77
2023/11/25 10:03:01;;;;;;;13.90;2.20;;;3.70;99.90;;;4.18;100.00;97686.94;5019460;28;20491;-77
2023/11/25 10:05:31;;;;;;;1.87;1.57;;;3.70;99.90;;;4.26;100.00;97685.19;5019700;28;20466;-77
2023/11/25 10:08:01;;;;;;;10.37;1.97;;;3.80;99.90;;;4.32;100.00;97676.81;5017671;28;20465;-77
2023/11/25 10:10:32;;;;;;;6.10;1.97;;;3.90;99.90;;;4.40;100.00;97689.78;5019099;28;20529;-77
2023/11/25 10:13:03;;;;;;;7.77;2.30;;;3.90;99.90;;;4.48;100.00;97684.59;5020100;28;20522;-77
2023/11/25 10:15:33;;;;;;;6.83;1.67;;;4.00;99.90;;;4.49;100.00;97699.19;5018375;28;20470;-77
2023/11/25 10:18:01;;;;;;;3.87;1.47;;;4.10;99.90;;;4.51;100.00;97693.88;5017436;28;20462;-77
2023/11/25 10:20:41;;;;;;;4.60;1.47;;;4.00;99.90;;;4.57;100.00;97694.03;5016669;28;21039;-77
2023/11/25 10:23:10;;;;;;;6.17;1.47;;;4.10;99.90;;;4.62;100.00;97700.53;5017607;28;20484;-77
2023/11/25 10:25:42;;;;;;;2.90;1.40;;;4.20;99.90;;;4.63;100.00;97689.19;5018366;28;20982;-77
2023/11/25 10:28:14;;;;;;;3.13;1.67;;;4.20;99.90;;;4.67;100.00;97685.31;5018380;28;20467;-77
2023/11/25 10:30:44;;;;;;;1.83;1.53;;;4.20;99.90;;;4.73;100.00;97682.06;5020856;28;20973;-77
2023/11/25 10:33:13;;;;;;;1.50;1.40;;;4.20;99.90;;;4.77;100.00;97667.84;5018404;28;20498;-78
2023/11/25 10:35:43;;;;;;;5.50;1.80;;;4.30;99.90;;;4.75;100.00;97675.78;5019026;28;20546;-77